sensor_id;sensor_type;location;lat;lon;timestamp;P1;durP1;ratioP1;P2;durP2;ratioP2
39994;SDS011;25686;51.908;10.418;2023-08-20T00:01:24;32.45;;;24.65;;
39994;SDS011;25686;51.908;10.418;2023-08-20T00:03:26;24.20;;;19.95;;
39994;SDS011;25686;51.908;10.418;2023-08-20T00:05:27;27.90;;;19.88;;
39994;SDS011;25686;51.908;10.418;2023-08-20T00:07:28;31.77;;;22.20;;
39994;SDS011;25686;51.908;10.418;2023-08-20T00:09:29;32.08;;;25.13;;
39994;SDS011;25686;51.908;10.418;2023-08-20T00:11:30;33.72;;;23.48;;
39994;SDS011;25686;51.908;10.418;2023-08-20T00:13:31;34.72;;;25.67;;
39994;SDS011;25686;51.908;10.418;2023-08-20T00:15:32;33.75;;;25.15;;
39994;SDS011;25686;51.908;10.418;2023-08-20T00:17:37;34.38;;;23.30;;
39994;SDS011;25686;51.908;10.418;2023-08-20T00:19:38;36.75;;;27.42;;
39994;SDS011;25686;51.908;10.418;2023-08-20T00:21:41;34.70;;;26.40;;
39994;SDS011;25686;51.908;10.418;2023-08-20T00:23:42;40.40;;;27.70;;
39994;SDS011;25686;51.908;10.418;2023-08-20T00:25:44;37.88;;;26.48;;
39994;SDS011;25686;51.908;10.418;2023-08-20T00:27:45;35.20;;;24.58;;
39994;SDS011;25686;51.908;10.418;2023-08-20T00:29:46;29.58;;;23.52;;
39994;SDS011;25686;51.908;10.418;2023-08-20T00:31:47;31.25;;;22.73;;
39994;SDS011;25686;51.908;10.418;2023-08-20T00:33:48;34.78;;;23.45;;
39994;SDS011;25686;51.908;10.418;2023-08-20T00:35:49;34.10;;;22.85;;
39994;SDS011;25686;51.908;10.418;2023-08-20T00:37:50;31.15;;;23.38;;
39994;SDS011;25686;51.908;10.418;2023-08-20T00:39:51;35.78;;;24.10;;
39994;SDS011;25686;51.908;10.418;2023-08-20T00:41:52;32.42;;;23.75;;
39994;SDS011;25686;51.908;10.418;2023-08-20T00:43:53;31.23;;;23.17;;
39994;SDS011;25686;51.908;10.418;2023-08-20T00:45:54;28.95;;;22.33;;
39994;SDS011;25686;51.908;10.418;2023-08-20T00:47:55;29.45;;;22.67;;
39994;SDS011;25686;51.908;10.418;2023-08-20T00:49:57;30.88;;;21.00;;
39994;SDS011;25686;51.908;10.418;2023-08-20T00:51:58;33.30;;;21.33;;
39994;SDS011;25686;51.908;10.418;2023-08-20T00:54:00;33.55;;;20.48;;
39994;SDS011;25686;51.908;10.418;2023-08-20T00:56:01;28.85;;;20.35;;
39994;SDS011;25686;51.908;10.418;2023-08-20T00:58:02;25.33;;;18.30;;
39994;SDS011;25686;51.908;10.418;2023-08-20T01:00:03;29.27;;;19.45;;
39994;SDS011;25686;51.908;10.418;2023-08-20T01:02:09;27.80;;;19.25;;
39994;SDS011;25686;51.908;10.418;2023-08-20T01:04:10;26.75;;;18.63;;
39994;SDS011;25686;51.908;10.418;2023-08-20T01:06:23;27.05;;;18.02;;
39994;SDS011;25686;51.908;10.418;2023-08-20T01:08:29;26.00;;;18.15;;
39994;SDS011;25686;51.908;10.418;2023-08-20T01:12:52;27.92;;;18.70;;
39994;SDS011;25686;51.908;10.418;2023-08-20T01:14:53;25.50;;;17.77;;
39994;SDS011;25686;51.908;10.418;2023-08-20T01:16:54;24.52;;;17.38;;
39994;SDS011;25686;51.908;10.418;2023-08-20T01:18:55;23.85;;;16.38;;
39994;SDS011;25686;51.908;10.418;2023-08-20T01:21:01;22.55;;;16.25;;
39994;SDS011;25686;51.908;10.418;2023-08-20T01:23:31;23.38;;;16.42;;
39994;SDS011;25686;51.908;10.418;2023-08-20T01:25:45;24.88;;;17.38;;
39994;SDS011;25686;51.908;10.418;2023-08-20T01:29:50;24.23;;;17.52;;
39994;SDS011;25686;51.908;10.418;2023-08-20T01:31:52;26.10;;;16.45;;
39994;SDS011;25686;51.908;10.418;2023-08-20T01:33:54;24.48;;;16.10;;
39994;SDS011;25686;51.908;10.418;2023-08-20T01:35:55;27.95;;;17.15;;
39994;SDS011;25686;51.908;10.418;2023-08-20T01:37:56;24.58;;;16.30;;
39994;SDS011;25686;51.908;10.418;2023-08-20T01:39:57;23.63;;;16.55;;
39994;SDS011;25686;51.908;10.418;2023-08-20T01:41:58;24.10;;;17.05;;
39994;SDS011;25686;51.908;10.418;2023-08-20T01:43:59;24.63;;;16.60;;
39994;SDS011;25686;51.908;10.418;2023-08-20T01:46:00;23.27;;;16.15;;
39994;SDS011;25686;51.908;10.418;2023-08-20T01:48:01;23.02;;;15.93;;
39994;SDS011;25686;51.908;10.418;2023-08-20T01:50:03;23.60;;;16.63;;
39994;SDS011;25686;51.908;10.418;2023-08-20T01:52:04;25.45;;;15.75;;
39994;SDS011;25686;51.908;10.418;2023-08-20T01:54:06;26.35;;;16.55;;
39994;SDS011;25686;51.908;10.418;2023-08-20T01:56:12;24.77;;;16.65;;
39994;SDS011;25686;51.908;10.418;2023-08-20T01:58:14;26.50;;;17.38;;
39994;SDS011;25686;51.908;10.418;2023-08-20T02:00:15;27.08;;;17.35;;
39994;SDS011;25686;51.908;10.418;2023-08-20T02:02:16;24.30;;;17.67;;
39994;SDS011;25686;51.908;10.418;2023-08-20T02:04:17;22.88;;;17.08;;
39994;SDS011;25686;51.908;10.418;2023-08-20T02:06:18;30.17;;;18.23;;
39994;SDS011;25686;51.908;10.418;2023-08-20T02:08:19;26.55;;;17.92;;
39994;SDS011;25686;51.908;10.418;2023-08-20T02:10:20;28.08;;;18.30;;
39994;SDS011;25686;51.908;10.418;2023-08-20T02:12:21;24.55;;;17.98;;
39994;SDS011;25686;51.908;10.418;2023-08-20T02:14:22;24.50;;;15.95;;
39994;SDS011;25686;51.908;10.418;2023-08-20T02:16:23;27.42;;;18.70;;
39994;SDS011;25686;51.908;10.418;2023-08-20T02:18:24;26.52;;;19.05;;
39994;SDS011;25686;51.908;10.418;2023-08-20T02:20:26;28.60;;;17.90;;
39994;SDS011;25686;51.908;10.418;2023-08-20T02:22:27;32.33;;;18.60;;
39994;SDS011;25686;51.908;10.418;2023-08-20T02:24:29;31.75;;;19.55;;
39994;SDS011;25686;51.908;10.418;2023-08-20T02:26:30;32.28;;;19.80;;
39994;SDS011;25686;51.908;10.418;2023-08-20T02:28:31;28.27;;;17.77;;
39994;SDS011;25686;51.908;10.418;2023-08-20T02:30:33;34.50;;;22.15;;
39994;SDS011;25686;51.908;10.418;2023-08-20T02:32:39;33.22;;;22.90;;
39994;SDS011;25686;51.908;10.418;2023-08-20T02:34:40;35.92;;;23.80;;
39994;SDS011;25686;51.908;10.418;2023-08-20T02:36:41;34.20;;;22.83;;
39994;SDS011;25686;51.908;10.418;2023-08-20T02:38:41;35.42;;;23.70;;
39994;SDS011;25686;51.908;10.418;2023-08-20T02:40:42;41.28;;;26.75;;
39994;SDS011;25686;51.908;10.418;2023-08-20T02:42:43;40.50;;;26.63;;
39994;SDS011;25686;51.908;10.418;2023-08-20T02:44:44;38.17;;;25.55;;
39994;SDS011;25686;51.908;10.418;2023-08-20T02:46:45;39.90;;;25.17;;
39994;SDS011;25686;51.908;10.418;2023-08-20T02:48:47;41.90;;;27.10;;
39994;SDS011;25686;51.908;10.418;2023-08-20T02:50:47;40.33;;;25.20;;
39994;SDS011;25686;51.908;10.418;2023-08-20T02:52:48;32.58;;;22.20;;
39994;SDS011;25686;51.908;10.418;2023-08-20T02:54:49;34.22;;;24.00;;
39994;SDS011;25686;51.908;10.418;2023-08-20T02:56:50;34.58;;;23.88;;
39994;SDS011;25686;51.908;10.418;2023-08-20T02:58:51;33.70;;;23.33;;
39994;SDS011;25686;51.908;10.418;2023-08-20T03:00:52;37.97;;;24.20;;
39994;SDS011;25686;51.908;10.418;2023-08-20T03:02:53;36.13;;;25.50;;
39994;SDS011;25686;51.908;10.418;2023-08-20T03:04:55;39.65;;;26.58;;
39994;SDS011;25686;51.908;10.418;2023-08-20T03:06:56;39.55;;;26.23;;
39994;SDS011;25686;51.908;10.418;2023-08-20T03:08:57;41.83;;;25.20;;
39994;SDS011;25686;51.908;10.418;2023-08-20T03:10:58;40.75;;;28.20;;
39994;SDS011;25686;51.908;10.418;2023-08-20T03:12:59;43.92;;;27.65;;
39994;SDS011;25686;51.908;10.418;2023-08-20T03:15:01;50.08;;;31.30;;
39994;SDS011;25686;51.908;10.418;2023-08-20T03:17:03;45.10;;;29.92;;
39994;SDS011;25686;51.908;10.418;2023-08-20T03:19:04;47.28;;;30.02;;
39994;SDS011;25686;51.908;10.418;2023-08-20T03:21:05;46.92;;;29.77;;
39994;SDS011;25686;51.908;10.418;2023-08-20T03:23:06;48.85;;;31.45;;
39994;SDS011;25686;51.908;10.418;2023-08-20T03:25:07;55.63;;;34.95;;
39994;SDS011;25686;51.908;10.418;2023-08-20T03:27:08;52.75;;;33.92;;
39994;SDS011;25686;51.908;10.418;2023-08-20T03:29:09;58.42;;;35.30;;
39994;SDS011;25686;51.908;10.418;2023-08-20T03:31:10;52.63;;;34.15;;
39994;SDS011;25686;51.908;10.418;2023-08-20T03:33:11;52.30;;;32.90;;
39994;SDS011;25686;51.908;10.418;2023-08-20T03:35:12;62.25;;;37.03;;
39994;SDS011;25686;51.908;10.418;2023-08-20T03:37:13;67.90;;;39.83;;
39994;SDS011;25686;51.908;10.418;2023-08-20T03:39:14;73.88;;;43.20;;
39994;SDS011;25686;51.908;10.418;2023-08-20T03:41:14;76.90;;;43.92;;
39994;SDS011;25686;51.908;10.418;2023-08-20T03:43:17;81.70;;;44.38;;
39994;SDS011;25686;51.908;10.418;2023-08-20T03:45:18;75.15;;;43.85;;
39994;SDS011;25686;51.908;10.418;2023-08-20T03:47:19;75.50;;;43.75;;
39994;SDS011;25686;51.908;10.418;2023-08-20T03:49:20;79.20;;;43.78;;
39994;SDS011;25686;51.908;10.418;2023-08-20T03:51:22;71.53;;;43.20;;
39994;SDS011;25686;51.908;10.418;2023-08-20T03:53:23;76.70;;;42.33;;
39994;SDS011;25686;51.908;10.418;2023-08-20T03:55:24;85.25;;;47.00;;
39994;SDS011;25686;51.908;10.418;2023-08-20T03:57:25;89.47;;;48.53;;
39994;SDS011;25686;51.908;10.418;2023-08-20T03:59:26;86.10;;;46.70;;
39994;SDS011;25686;51.908;10.418;2023-08-20T04:01:27;84.47;;;45.35;;
39994;SDS011;25686;51.908;10.418;2023-08-20T04:03:28;76.93;;;44.42;;
39994;SDS011;25686;51.908;10.418;2023-08-20T04:05:29;75.95;;;42.20;;
39994;SDS011;25686;51.908;10.418;2023-08-20T04:07:30;71.15;;;40.92;;
39994;SDS011;25686;51.908;10.418;2023-08-20T04:09:32;70.82;;;40.25;;
39994;SDS011;25686;51.908;10.418;2023-08-20T04:11:33;67.13;;;37.85;;
39994;SDS011;25686;51.908;10.418;2023-08-20T04:13:34;66.68;;;37.67;;
39994;SDS011;25686;51.908;10.418;2023-08-20T04:15:35;59.47;;;36.33;;
39994;SDS011;25686;51.908;10.418;2023-08-20T04:17:36;53.40;;;33.28;;
39994;SDS011;25686;51.908;10.418;2023-08-20T04:19:37;56.22;;;34.15;;
39994;SDS011;25686;51.908;10.418;2023-08-20T04:21:38;56.42;;;34.13;;
39994;SDS011;25686;51.908;10.418;2023-08-20T04:23:39;56.95;;;35.83;;
39994;SDS011;25686;51.908;10.418;2023-08-20T04:25:41;60.88;;;36.17;;
39994;SDS011;25686;51.908;10.418;2023-08-20T04:27:42;56.08;;;33.80;;
39994;SDS011;25686;51.908;10.418;2023-08-20T04:29:43;58.35;;;33.83;;
39994;SDS011;25686;51.908;10.418;2023-08-20T04:31:44;57.97;;;34.75;;
39994;SDS011;25686;51.908;10.418;2023-08-20T04:33:45;51.65;;;34.20;;
39994;SDS011;25686;51.908;10.418;2023-08-20T04:35:48;55.40;;;34.78;;
39994;SDS011;25686;51.908;10.418;2023-08-20T04:37:52;57.88;;;35.45;;
39994;SDS011;25686;51.908;10.418;2023-08-20T04:39:53;62.92;;;37.28;;
39994;SDS011;25686;51.908;10.418;2023-08-20T04:41:54;56.45;;;36.58;;
39994;SDS011;25686;51.908;10.418;2023-08-20T04:43:57;60.78;;;36.63;;
39994;SDS011;25686;51.908;10.418;2023-08-20T04:45:58;63.22;;;37.65;;
39994;SDS011;25686;51.908;10.418;2023-08-20T04:47:59;67.15;;;38.20;;
39994;SDS011;25686;51.908;10.418;2023-08-20T04:50:00;62.78;;;38.55;;
39994;SDS011;25686;51.908;10.418;2023-08-20T04:52:01;62.50;;;37.15;;
39994;SDS011;25686;51.908;10.418;2023-08-20T04:54:02;63.35;;;40.17;;
39994;SDS011;25686;51.908;10.418;2023-08-20T04:56:03;67.15;;;39.20;;
39994;SDS011;25686;51.908;10.418;2023-08-20T04:58:04;63.38;;;39.72;;
39994;SDS011;25686;51.908;10.418;2023-08-20T05:00:05;62.88;;;40.33;;
39994;SDS011;25686;51.908;10.418;2023-08-20T05:02:06;56.47;;;37.85;;
39994;SDS011;25686;51.908;10.418;2023-08-20T05:04:07;59.95;;;36.55;;
39994;SDS011;25686;51.908;10.418;2023-08-20T05:06:08;58.55;;;36.22;;
39994;SDS011;25686;51.908;10.418;2023-08-20T05:08:09;54.42;;;34.30;;
39994;SDS011;25686;51.908;10.418;2023-08-20T05:10:11;46.85;;;30.90;;
39994;SDS011;25686;51.908;10.418;2023-08-20T05:12:12;45.22;;;30.00;;
39994;SDS011;25686;51.908;10.418;2023-08-20T05:14:13;45.92;;;29.15;;
39994;SDS011;25686;51.908;10.418;2023-08-20T05:16:14;45.00;;;29.25;;
39994;SDS011;25686;51.908;10.418;2023-08-20T05:18:15;43.92;;;28.63;;
39994;SDS011;25686;51.908;10.418;2023-08-20T05:20:16;50.15;;;33.10;;
39994;SDS011;25686;51.908;10.418;2023-08-20T05:22:17;57.05;;;35.63;;
39994;SDS011;25686;51.908;10.418;2023-08-20T05:24:18;51.08;;;32.00;;
39994;SDS011;25686;51.908;10.418;2023-08-20T05:26:21;58.25;;;35.08;;
39994;SDS011;25686;51.908;10.418;2023-08-20T05:28:22;49.17;;;31.67;;
39994;SDS011;25686;51.908;10.418;2023-08-20T05:30:23;53.80;;;33.92;;
39994;SDS011;25686;51.908;10.418;2023-08-20T05:32:24;41.40;;;27.60;;
39994;SDS011;25686;51.908;10.418;2023-08-20T05:34:25;47.97;;;31.05;;
39994;SDS011;25686;51.908;10.418;2023-08-20T05:36:26;47.35;;;29.40;;
39994;SDS011;25686;51.908;10.418;2023-08-20T05:38:27;44.63;;;30.45;;
39994;SDS011;25686;51.908;10.418;2023-08-20T05:40:28;42.10;;;27.05;;
39994;SDS011;25686;51.908;10.418;2023-08-20T05:42:29;43.83;;;29.08;;
39994;SDS011;25686;51.908;10.418;2023-08-20T05:44:30;45.47;;;29.73;;
39994;SDS011;25686;51.908;10.418;2023-08-20T05:46:31;43.38;;;29.00;;
39994;SDS011;25686;51.908;10.418;2023-08-20T05:48:32;37.92;;;27.02;;
39994;SDS011;25686;51.908;10.418;2023-08-20T05:50:33;41.70;;;29.63;;
39994;SDS011;25686;51.908;10.418;2023-08-20T05:52:34;47.67;;;30.98;;
39994;SDS011;25686;51.908;10.418;2023-08-20T05:54:35;48.58;;;29.73;;
39994;SDS011;25686;51.908;10.418;2023-08-20T05:56:36;45.78;;;30.08;;
39994;SDS011;25686;51.908;10.418;2023-08-20T05:58:37;44.85;;;28.67;;
39994;SDS011;25686;51.908;10.418;2023-08-20T06:00:38;48.25;;;31.45;;
39994;SDS011;25686;51.908;10.418;2023-08-20T06:02:39;47.08;;;31.75;;
39994;SDS011;25686;51.908;10.418;2023-08-20T06:04:40;50.95;;;33.25;;
39994;SDS011;25686;51.908;10.418;2023-08-20T06:06:41;51.40;;;31.90;;
39994;SDS011;25686;51.908;10.418;2023-08-20T06:08:42;48.15;;;31.35;;
39994;SDS011;25686;51.908;10.418;2023-08-20T06:10:43;45.85;;;30.05;;
39994;SDS011;25686;51.908;10.418;2023-08-20T06:12:44;52.17;;;32.42;;
39994;SDS011;25686;51.908;10.418;2023-08-20T06:14:46;48.67;;;31.25;;
39994;SDS011;25686;51.908;10.418;2023-08-20T06:16:47;51.90;;;31.88;;
39994;SDS011;25686;51.908;10.418;2023-08-20T06:18:48;46.45;;;32.30;;
39994;SDS011;25686;51.908;10.418;2023-08-20T06:20:49;41.60;;;30.42;;
39994;SDS011;25686;51.908;10.418;2023-08-20T06:22:50;44.47;;;30.35;;
39994;SDS011;25686;51.908;10.418;2023-08-20T06:24:50;46.45;;;31.83;;
39994;SDS011;25686;51.908;10.418;2023-08-20T06:26:52;43.90;;;31.05;;
39994;SDS011;25686;51.908;10.418;2023-08-20T06:28:53;42.30;;;29.63;;
39994;SDS011;25686;51.908;10.418;2023-08-20T06:30:54;43.58;;;31.42;;
39994;SDS011;25686;51.908;10.418;2023-08-20T06:32:55;44.83;;;32.63;;
39994;SDS011;25686;51.908;10.418;2023-08-20T06:34:56;44.80;;;31.55;;
39994;SDS011;25686;51.908;10.418;2023-08-20T06:36:57;44.17;;;31.70;;
39994;SDS011;25686;51.908;10.418;2023-08-20T06:38:58;43.08;;;31.65;;
39994;SDS011;25686;51.908;10.418;2023-08-20T06:40:59;43.35;;;30.55;;
39994;SDS011;25686;51.908;10.418;2023-08-20T06:43:00;38.97;;;28.42;;
39994;SDS011;25686;51.908;10.418;2023-08-20T06:45:01;36.42;;;25.90;;
39994;SDS011;25686;51.908;10.418;2023-08-20T06:47:02;38.38;;;23.77;;
39994;SDS011;25686;51.908;10.418;2023-08-20T06:49:03;24.90;;;17.05;;
39994;SDS011;25686;51.908;10.418;2023-08-20T06:51:13;27.35;;;18.45;;
39994;SDS011;25686;51.908;10.418;2023-08-20T06:53:15;31.05;;;20.80;;
39994;SDS011;25686;51.908;10.418;2023-08-20T06:55:16;33.95;;;22.33;;
39994;SDS011;25686;51.908;10.418;2023-08-20T06:57:17;31.55;;;23.90;;
39994;SDS011;25686;51.908;10.418;2023-08-20T06:59:18;36.70;;;27.63;;
39994;SDS011;25686;51.908;10.418;2023-08-20T07:01:19;47.97;;;35.95;;
39994;SDS011;25686;51.908;10.418;2023-08-20T07:03:20;44.33;;;34.25;;
39994;SDS011;25686;51.908;10.418;2023-08-20T07:05:21;58.10;;;33.42;;
39994;SDS011;25686;51.908;10.418;2023-08-20T07:07:22;37.80;;;30.92;;
39994;SDS011;25686;51.908;10.418;2023-08-20T07:09:23;37.13;;;30.80;;
39994;SDS011;25686;51.908;10.418;2023-08-20T07:11:24;35.75;;;25.52;;
39994;SDS011;25686;51.908;10.418;2023-08-20T07:13:25;27.17;;;22.05;;
39994;SDS011;25686;51.908;10.418;2023-08-20T07:15:26;23.38;;;18.83;;
39994;SDS011;25686;51.908;10.418;2023-08-20T07:17:27;23.83;;;17.35;;
39994;SDS011;25686;51.908;10.418;2023-08-20T07:19:28;17.35;;;14.63;;
39994;SDS011;25686;51.908;10.418;2023-08-20T07:21:29;16.33;;;11.95;;
39994;SDS011;25686;51.908;10.418;2023-08-20T07:23:30;14.80;;;11.90;;
39994;SDS011;25686;51.908;10.418;2023-08-20T07:25:32;13.18;;;10.38;;
39994;SDS011;25686;51.908;10.418;2023-08-20T07:27:33;14.63;;;8.43;;
39994;SDS011;25686;51.908;10.418;2023-08-20T07:29:34;11.70;;;8.23;;
39994;SDS011;25686;51.908;10.418;2023-08-20T07:31:35;10.48;;;6.45;;
39994;SDS011;25686;51.908;10.418;2023-08-20T07:33:36;8.07;;;6.25;;
39994;SDS011;25686;51.908;10.418;2023-08-20T07:35:37;9.88;;;5.80;;
39994;SDS011;25686;51.908;10.418;2023-08-20T07:37:38;10.90;;;7.43;;
39994;SDS011;25686;51.908;10.418;2023-08-20T07:39:39;11.98;;;8.38;;
39994;SDS011;25686;51.908;10.418;2023-08-20T07:41:40;11.05;;;7.80;;
39994;SDS011;25686;51.908;10.418;2023-08-20T07:43:41;11.88;;;8.13;;
39994;SDS011;25686;51.908;10.418;2023-08-20T07:45:42;9.02;;;7.55;;
39994;SDS011;25686;51.908;10.418;2023-08-20T07:47:43;10.60;;;7.65;;
39994;SDS011;25686;51.908;10.418;2023-08-20T07:49:44;12.43;;;7.85;;
39994;SDS011;25686;51.908;10.418;2023-08-20T07:51:45;7.90;;;7.00;;
39994;SDS011;25686;51.908;10.418;2023-08-20T07:53:46;6.95;;;5.97;;
39994;SDS011;25686;51.908;10.418;2023-08-20T07:55:47;7.75;;;6.88;;
39994;SDS011;25686;51.908;10.418;2023-08-20T07:57:48;9.32;;;6.40;;
39994;SDS011;25686;51.908;10.418;2023-08-20T07:59:50;9.70;;;6.93;;
39994;SDS011;25686;51.908;10.418;2023-08-20T08:01:51;9.43;;;6.22;;
39994;SDS011;25686;51.908;10.418;2023-08-20T08:03:52;9.13;;;5.45;;
39994;SDS011;25686;51.908;10.418;2023-08-20T08:05:53;7.43;;;5.00;;
39994;SDS011;25686;51.908;10.418;2023-08-20T08:07:54;11.90;;;5.55;;
39994;SDS011;25686;51.908;10.418;2023-08-20T08:09:56;8.82;;;5.65;;
39994;SDS011;25686;51.908;10.418;2023-08-20T08:11:57;8.32;;;5.72;;
39994;SDS011;25686;51.908;10.418;2023-08-20T08:13:58;6.18;;;5.55;;
39994;SDS011;25686;51.908;10.418;2023-08-20T08:15:59;6.28;;;4.90;;
39994;SDS011;25686;51.908;10.418;2023-08-20T08:18:00;5.53;;;4.80;;
39994;SDS011;25686;51.908;10.418;2023-08-20T08:20:01;8.25;;;5.40;;
39994;SDS011;25686;51.908;10.418;2023-08-20T08:22:03;6.25;;;5.03;;
39994;SDS011;25686;51.908;10.418;2023-08-20T08:24:04;7.18;;;5.05;;
39994;SDS011;25686;51.908;10.418;2023-08-20T08:26:05;6.30;;;5.10;;
39994;SDS011;25686;51.908;10.418;2023-08-20T08:28:06;7.95;;;4.70;;
39994;SDS011;25686;51.908;10.418;2023-08-20T08:30:07;8.85;;;5.07;;
39994;SDS011;25686;51.908;10.418;2023-08-20T08:32:08;6.38;;;4.88;;
39994;SDS011;25686;51.908;10.418;2023-08-20T08:34:09;5.70;;;5.10;;
39994;SDS011;25686;51.908;10.418;2023-08-20T08:36:10;6.38;;;5.10;;
39994;SDS011;25686;51.908;10.418;2023-08-20T08:38:11;10.07;;;5.88;;
39994;SDS011;25686;51.908;10.418;2023-08-20T08:40:12;7.75;;;4.80;;
39994;SDS011;25686;51.908;10.418;2023-08-20T08:42:13;8.20;;;5.38;;
39994;SDS011;25686;51.908;10.418;2023-08-20T08:44:15;6.68;;;5.10;;
39994;SDS011;25686;51.908;10.418;2023-08-20T08:46:16;8.57;;;5.40;;
39994;SDS011;25686;51.908;10.418;2023-08-20T08:48:18;7.63;;;5.35;;
39994;SDS011;25686;51.908;10.418;2023-08-20T08:50:19;8.07;;;5.65;;
39994;SDS011;25686;51.908;10.418;2023-08-20T08:52:21;6.35;;;4.85;;
39994;SDS011;25686;51.908;10.418;2023-08-20T08:54:22;5.78;;;5.25;;
39994;SDS011;25686;51.908;10.418;2023-08-20T08:56:23;8.30;;;5.40;;
39994;SDS011;25686;51.908;10.418;2023-08-20T08:58:24;5.35;;;4.50;;
39994;SDS011;25686;51.908;10.418;2023-08-20T09:00:25;6.22;;;4.50;;
39994;SDS011;25686;51.908;10.418;2023-08-20T09:02:26;6.78;;;4.43;;
39994;SDS011;25686;51.908;10.418;2023-08-20T09:04:27;4.80;;;3.85;;
39994;SDS011;25686;51.908;10.418;2023-08-20T09:06:29;5.40;;;4.10;;
39994;SDS011;25686;51.908;10.418;2023-08-20T09:08:44;6.93;;;5.05;;
39994;SDS011;25686;51.908;10.418;2023-08-20T09:10:45;5.22;;;4.22;;
39994;SDS011;25686;51.908;10.418;2023-08-20T09:12:47;5.28;;;4.78;;
39994;SDS011;25686;51.908;10.418;2023-08-20T09:14:49;7.22;;;5.28;;
39994;SDS011;25686;51.908;10.418;2023-08-20T09:16:54;8.05;;;4.70;;
39994;SDS011;25686;51.908;10.418;2023-08-20T09:18:57;6.78;;;4.72;;
39994;SDS011;25686;51.908;10.418;2023-08-20T09:20:59;7.22;;;4.40;;
39994;SDS011;25686;51.908;10.418;2023-08-20T09:23:00;5.72;;;5.13;;
39994;SDS011;25686;51.908;10.418;2023-08-20T09:25:01;6.22;;;4.30;;
39994;SDS011;25686;51.908;10.418;2023-08-20T09:27:03;6.65;;;4.53;;
39994;SDS011;25686;51.908;10.418;2023-08-20T09:29:05;6.18;;;4.43;;
39994;SDS011;25686;51.908;10.418;2023-08-20T09:31:06;6.53;;;4.18;;
39994;SDS011;25686;51.908;10.418;2023-08-20T09:33:08;5.10;;;4.22;;
39994;SDS011;25686;51.908;10.418;2023-08-20T09:35:17;7.25;;;4.20;;
39994;SDS011;25686;51.908;10.418;2023-08-20T09:37:19;5.50;;;4.05;;
39994;SDS011;25686;51.908;10.418;2023-08-20T09:39:20;6.40;;;4.07;;
39994;SDS011;25686;51.908;10.418;2023-08-20T09:41:21;6.25;;;4.13;;
39994;SDS011;25686;51.908;10.418;2023-08-20T09:43:24;6.25;;;4.25;;
39994;SDS011;25686;51.908;10.418;2023-08-20T09:45:29;5.43;;;4.07;;
39994;SDS011;25686;51.908;10.418;2023-08-20T09:47:30;4.47;;;4.07;;
39994;SDS011;25686;51.908;10.418;2023-08-20T09:49:36;5.47;;;3.97;;
39994;SDS011;25686;51.908;10.418;2023-08-20T09:51:37;5.13;;;4.00;;
39994;SDS011;25686;51.908;10.418;2023-08-20T09:53:48;5.28;;;4.40;;
39994;SDS011;25686;51.908;10.418;2023-08-20T09:55:50;7.93;;;4.28;;
39994;SDS011;25686;51.908;10.418;2023-08-20T09:57:52;5.35;;;4.15;;
39994;SDS011;25686;51.908;10.418;2023-08-20T09:59:53;5.00;;;4.20;;
39994;SDS011;25686;51.908;10.418;2023-08-20T10:01:54;4.50;;;3.72;;
39994;SDS011;25686;51.908;10.418;2023-08-20T10:03:57;4.35;;;3.63;;
39994;SDS011;25686;51.908;10.418;2023-08-20T10:05:58;5.50;;;4.32;;
39994;SDS011;25686;51.908;10.418;2023-08-20T10:08:01;5.32;;;3.70;;
39994;SDS011;25686;51.908;10.418;2023-08-20T10:10:03;4.80;;;3.80;;
39994;SDS011;25686;51.908;10.418;2023-08-20T10:12:04;4.50;;;3.90;;
39994;SDS011;25686;51.908;10.418;2023-08-20T10:14:05;4.10;;;3.53;;
39994;SDS011;25686;51.908;10.418;2023-08-20T10:16:07;7.30;;;3.60;;
39994;SDS011;25686;51.908;10.418;2023-08-20T10:18:08;5.72;;;3.72;;
39994;SDS011;25686;51.908;10.418;2023-08-20T10:20:09;5.57;;;3.55;;
39994;SDS011;25686;51.908;10.418;2023-08-20T10:22:10;5.32;;;3.50;;
39994;SDS011;25686;51.908;10.418;2023-08-20T10:24:16;5.07;;;3.80;;
39994;SDS011;25686;51.908;10.418;2023-08-20T10:26:19;6.22;;;3.78;;
39994;SDS011;25686;51.908;10.418;2023-08-20T10:28:25;5.47;;;4.90;;
39994;SDS011;25686;51.908;10.418;2023-08-20T10:30:28;5.00;;;3.70;;
39994;SDS011;25686;51.908;10.418;2023-08-20T10:32:43;5.32;;;4.13;;
39994;SDS011;25686;51.908;10.418;2023-08-20T10:34:49;4.80;;;4.00;;
39994;SDS011;25686;51.908;10.418;2023-08-20T10:36:50;3.92;;;3.63;;
39994;SDS011;25686;51.908;10.418;2023-08-20T10:38:51;6.60;;;4.10;;
39994;SDS011;25686;51.908;10.418;2023-08-20T10:40:57;4.88;;;4.20;;
39994;SDS011;25686;51.908;10.418;2023-08-20T10:42:58;8.52;;;4.15;;
39994;SDS011;25686;51.908;10.418;2023-08-20T10:45:05;4.10;;;3.67;;
39994;SDS011;25686;51.908;10.418;2023-08-20T10:47:08;7.38;;;4.60;;
39994;SDS011;25686;51.908;10.418;2023-08-20T10:49:09;6.20;;;4.35;;
39994;SDS011;25686;51.908;10.418;2023-08-20T10:53:21;4.93;;;4.50;;
39994;SDS011;25686;51.908;10.418;2023-08-20T10:55:22;6.43;;;5.07;;
39994;SDS011;25686;51.908;10.418;2023-08-20T10:57:32;5.50;;;5.00;;
39994;SDS011;25686;51.908;10.418;2023-08-20T10:59:33;7.65;;;5.00;;
39994;SDS011;25686;51.908;10.418;2023-08-20T11:01:34;6.03;;;4.57;;
39994;SDS011;25686;51.908;10.418;2023-08-20T11:03:35;5.15;;;4.43;;
39994;SDS011;25686;51.908;10.418;2023-08-20T11:05:37;4.82;;;4.22;;
39994;SDS011;25686;51.908;10.418;2023-08-20T11:07:38;6.55;;;4.18;;
39994;SDS011;25686;51.908;10.418;2023-08-20T11:09:39;7.15;;;4.68;;
39994;SDS011;25686;51.908;10.418;2023-08-20T11:11:41;4.95;;;4.32;;
39994;SDS011;25686;51.908;10.418;2023-08-20T11:13:42;6.95;;;4.72;;
39994;SDS011;25686;51.908;10.418;2023-08-20T11:15:43;5.68;;;4.47;;
39994;SDS011;25686;51.908;10.418;2023-08-20T11:17:45;4.97;;;4.38;;
39994;SDS011;25686;51.908;10.418;2023-08-20T11:19:46;5.30;;;4.50;;
39994;SDS011;25686;51.908;10.418;2023-08-20T11:21:49;7.45;;;4.88;;
39994;SDS011;25686;51.908;10.418;2023-08-20T11:23:51;9.80;;;4.82;;
39994;SDS011;25686;51.908;10.418;2023-08-20T11:25:54;6.25;;;4.75;;
39994;SDS011;25686;51.908;10.418;2023-08-20T11:27:55;6.55;;;4.75;;
39994;SDS011;25686;51.908;10.418;2023-08-20T11:29:57;7.45;;;5.30;;
39994;SDS011;25686;51.908;10.418;2023-08-20T11:31:58;6.32;;;4.88;;
39994;SDS011;25686;51.908;10.418;2023-08-20T11:34:03;5.90;;;5.10;;
39994;SDS011;25686;51.908;10.418;2023-08-20T11:36:05;7.07;;;4.72;;
39994;SDS011;25686;51.908;10.418;2023-08-20T11:38:06;7.63;;;5.25;;
39994;SDS011;25686;51.908;10.418;2023-08-20T11:40:07;5.72;;;5.05;;
39994;SDS011;25686;51.908;10.418;2023-08-20T11:42:08;5.80;;;4.78;;
39994;SDS011;25686;51.908;10.418;2023-08-20T11:44:10;6.07;;;4.95;;
39994;SDS011;25686;51.908;10.418;2023-08-20T11:46:14;7.03;;;5.13;;
39994;SDS011;25686;51.908;10.418;2023-08-20T11:48:16;7.35;;;5.28;;
39994;SDS011;25686;51.908;10.418;2023-08-20T11:50:20;8.27;;;5.05;;
39994;SDS011;25686;51.908;10.418;2023-08-20T11:52:21;8.05;;;5.15;;
39994;SDS011;25686;51.908;10.418;2023-08-20T11:54:22;9.98;;;5.70;;
39994;SDS011;25686;51.908;10.418;2023-08-20T11:56:26;9.23;;;5.88;;